createdAt,value
2019-04-06T00:00:46.860Z,96823.19
2019-04-06T00:02:48.498Z,96825.19
2019-04-06T00:04:50.094Z,96829.34
2019-04-06T00:06:51.716Z,96827.70
2019-04-06T00:08:53.313Z,96826.03
2019-04-06T00:10:55.270Z,96823.00
2019-04-06T00:12:56.604Z,96814.55
2019-04-06T00:14:58.185Z,96820.60
2019-04-06T00:16:59.819Z,96816.30
2019-04-06T00:19:01.433Z,96822.72
2019-04-06T00:21:03.027Z,96820.60
2019-04-06T00:23:04.638Z,96823.55
2019-04-06T00:25:06.261Z,96819.64
2019-04-06T00:27:07.882Z,96824.28
2019-04-06T00:29:09.501Z,96824.63
2019-04-06T00:31:17.585Z,96828.22
2019-04-06T00:33:19.212Z,96824.23
2019-04-06T00:35:20.818Z,96821.47
2019-04-06T00:37:22.431Z,96822.77
2019-04-06T00:39:24.034Z,96823.71
2019-04-06T00:41:25.628Z,96822.48
2019-04-06T00:43:27.256Z,96826.42
2019-04-06T00:45:28.846Z,96817.11
2019-04-06T00:47:30.486Z,96819.59
2019-04-06T00:49:32.080Z,96810.10
2019-04-06T00:51:33.658Z,96815.55
2019-04-06T00:53:35.279Z,96813.33
2019-04-06T00:55:36.925Z,96817.09
2019-04-06T00:57:38.507Z,96812.70
2019-04-06T00:59:40.111Z,96810.17
2019-04-06T01:01:41.700Z,96808.37
2019-04-06T01:03:43.289Z,96815.70
2019-04-06T01:05:44.912Z,96809.50
2019-04-06T01:07:46.523Z,96811.64
2019-04-06T01:09:48.105Z,96812.86
2019-04-06T01:11:49.752Z,96810.28
2019-04-06T01:13:51.343Z,96818.89
2019-04-06T01:15:52.954Z,96823.61
2019-04-06T01:17:54.570Z,96826.69
2019-04-06T01:19:56.166Z,96831.42
2019-04-06T01:21:57.771Z,96823.45
2019-04-06T01:23:59.364Z,96820.50
2019-04-06T01:26:07.202Z,96818.31
2019-04-06T01:28:02.706Z,96822.55
2019-04-06T01:30:04.312Z,96823.19
2019-04-06T01:32:05.924Z,96824.47
2019-04-06T01:34:07.590Z,96823.42
2019-04-06T01:36:09.279Z,96823.73
2019-04-06T01:38:10.906Z,96825.38
2019-04-06T01:40:12.521Z,96830.59
2019-04-06T01:42:14.114Z,96825.95
2019-04-06T01:44:15.721Z,96819.20
2019-04-06T01:46:17.344Z,96829.22
2019-04-06T01:48:18.976Z,96834.19
2019-04-06T01:50:20.554Z,96833.54
2019-04-06T01:52:22.155Z,96830.15
2019-04-06T01:54:23.768Z,96832.81
2019-04-06T01:56:25.388Z,96834.64
2019-04-06T01:58:26.986Z,96834.51
2019-04-06T02:00:28.605Z,96832.94
2019-04-06T02:02:30.225Z,96840.73
2019-04-06T02:04:31.839Z,96836.95
2019-04-06T02:06:33.432Z,96836.76
2019-04-06T02:08:35.057Z,96827.63
2019-04-06T02:10:36.674Z,96829.23
2019-04-06T02:12:38.318Z,96832.38
2019-04-06T02:14:39.935Z,96830.47
2019-04-06T02:16:41.507Z,96826.88
2019-04-06T02:18:43.192Z,96829.66
2019-04-06T02:20:44.850Z,96834.31
2019-04-06T02:22:46.462Z,96835.06
2019-04-06T02:24:48.068Z,96838.87
2019-04-06T02:26:49.673Z,96838.62
2019-04-06T02:28:51.308Z,96834.98
2019-04-06T02:31:03.679Z,96830.66
2019-04-06T02:33:07.194Z,96828.88
2019-04-06T02:35:19.447Z,96833.64
2019-04-06T02:37:35.955Z,96837.51
2019-04-06T02:39:53.238Z,96832.50
2019-04-06T02:41:57.444Z,96821.16
2019-04-06T02:43:58.949Z,96825.72
2019-04-06T02:46:00.561Z,96836.64
2019-04-06T02:48:02.153Z,96837.30
2019-04-06T02:50:03.768Z,96832.85
2019-04-06T02:52:05.389Z,96830.84
2019-04-06T02:54:07.022Z,96835.63
2019-04-06T02:56:08.644Z,96836.18
2019-04-06T02:58:10.294Z,96834.15
2019-04-06T03:00:11.914Z,96835.59
2019-04-06T03:02:13.620Z,96827.16
2019-04-06T03:04:15.247Z,96835.72
2019-04-06T03:06:16.901Z,96832.39
2019-04-06T03:08:18.500Z,96831.66
2019-04-06T03:10:20.166Z,96832.16
2019-04-06T03:12:21.769Z,96830.87
2019-04-06T03:14:23.440Z,96831.79
2019-04-06T03:16:25.230Z,96832.67
2019-04-06T03:18:26.769Z,96830.93
2019-04-06T03:20:28.383Z,96827.12
2019-04-06T03:22:30.047Z,96828.79
2019-04-06T03:24:31.687Z,96823.98
2019-04-06T03:26:33.322Z,96827.83
2019-04-06T03:28:34.901Z,96828.29
2019-04-06T03:30:36.823Z,96825.69
2019-04-06T03:32:38.134Z,96824.83
2019-04-06T03:34:39.815Z,96820.06
2019-04-06T03:36:41.471Z,96815.63
2019-04-06T03:38:43.076Z,96822.77
2019-04-06T03:40:44.691Z,96822.83
2019-04-06T03:42:46.287Z,96813.83
2019-04-06T03:44:47.912Z,96815.13
2019-04-06T03:46:49.579Z,96813.45
2019-04-06T03:48:51.190Z,96813.09
2019-04-06T03:50:52.811Z,96819.48
2019-04-06T03:52:54.437Z,96817.41
2019-04-06T03:54:56.034Z,96818.19
2019-04-06T03:56:57.660Z,96819.52
2019-04-06T03:58:59.310Z,96815.27
2019-04-06T04:01:00.989Z,96811.53
2019-04-06T04:03:02.730Z,96817.16
2019-04-06T04:05:04.308Z,96816.03
2019-04-06T04:07:05.900Z,96813.56
2019-04-06T04:09:07.524Z,96810.63
2019-04-06T04:11:09.121Z,96806.09
2019-04-06T04:13:10.861Z,96802.27
2019-04-06T04:15:12.716Z,96798.43
2019-04-06T04:17:14.058Z,96799.83
2019-04-06T04:19:15.690Z,96800.92
2019-04-06T04:21:17.310Z,96805.40
2019-04-06T04:23:18.911Z,96812.16
2019-04-06T04:25:20.502Z,96809.13
2019-04-06T04:27:29.570Z,96811.88
2019-04-06T04:29:23.783Z,96818.03
2019-04-06T04:31:25.383Z,96816.22
2019-04-06T04:33:26.972Z,96820.45
2019-04-06T04:35:28.599Z,96816.20
2019-04-06T04:37:30.209Z,96820.31
2019-04-06T04:39:31.841Z,96818.65
2019-04-06T04:41:33.462Z,96818.25
2019-04-06T04:43:35.048Z,96818.92
2019-04-06T04:45:36.650Z,96818.84
2019-04-06T04:47:38.255Z,96825.72
2019-04-06T04:49:39.886Z,96822.57
2019-04-06T04:51:41.500Z,96826.99
2019-04-06T04:53:43.102Z,96829.08
2019-04-06T04:55:44.716Z,96834.96
2019-04-06T04:57:46.310Z,96830.99
2019-04-06T04:59:47.898Z,96838.14
2019-04-06T05:01:49.520Z,96842.67
2019-04-06T05:03:51.134Z,96840.56
2019-04-06T05:05:52.746Z,96841.11
2019-04-06T05:07:54.365Z,96842.06
2019-04-06T05:09:55.942Z,96838.72
2019-04-06T05:11:57.535Z,96833.77
2019-04-06T05:13:59.279Z,96830.35
2019-04-06T05:16:00.862Z,96840.61
2019-04-06T05:18:02.481Z,96829.15
2019-04-06T05:20:04.076Z,96830.13
2019-04-06T05:22:05.697Z,96834.40
2019-04-06T05:24:07.417Z,96825.87
2019-04-06T05:26:08.954Z,96831.06
2019-04-06T05:28:10.755Z,96829.89
2019-04-06T05:30:12.185Z,96830.17
2019-04-06T05:32:13.812Z,96844.23
2019-04-06T05:34:15.447Z,96831.92
2019-04-06T05:36:17.086Z,96837.06
2019-04-06T05:38:18.704Z,96840.56
2019-04-06T05:40:20.341Z,96836.27
2019-04-06T05:42:21.947Z,96841.88
2019-04-06T05:44:23.585Z,96849.21
2019-04-06T05:46:25.208Z,96844.54
2019-04-06T05:48:26.810Z,96852.34
2019-04-06T05:50:28.586Z,96853.31
2019-04-06T05:52:30.064Z,96850.78
2019-04-06T05:54:31.661Z,96851.28
2019-04-06T05:56:33.271Z,96846.72
2019-04-06T05:58:34.884Z,96853.99
2019-04-06T06:00:39.925Z,96852.35
2019-04-06T06:02:41.434Z,96847.23
2019-04-06T06:04:40.581Z,96850.05
2019-04-06T06:06:41.541Z,96852.98
2019-04-06T06:08:43.287Z,96850.86
2019-04-06T06:10:44.781Z,96848.75
2019-04-06T06:12:46.380Z,96853.34
2019-04-06T06:14:47.966Z,96850.42
2019-04-06T06:16:49.582Z,96856.92
2019-04-06T06:18:51.191Z,96853.58
2019-04-06T06:20:52.812Z,96852.77
2019-04-06T06:22:54.596Z,96857.59
2019-04-06T06:24:56.100Z,96850.77
2019-04-06T06:26:57.760Z,96853.22
2019-04-06T06:28:59.376Z,96849.27
2019-04-06T06:31:01.071Z,96851.30
2019-04-06T06:33:02.664Z,96844.34
2019-04-06T06:35:04.262Z,96852.05
2019-04-06T06:37:06.005Z,96850.53
2019-04-06T06:39:07.591Z,96851.98
2019-04-06T06:41:09.200Z,96850.46
2019-04-06T06:43:10.824Z,96849.09
2019-04-06T06:45:12.438Z,96848.13
2019-04-06T06:47:14.016Z,96850.63
2019-04-06T06:49:15.666Z,96849.97
2019-04-06T06:51:17.268Z,96845.13
2019-04-06T06:53:18.886Z,96848.93
2019-04-06T06:55:20.477Z,96851.38
2019-04-06T06:57:22.069Z,96848.97
2019-04-06T06:59:23.719Z,96848.24
2019-04-06T07:01:25.352Z,96850.36
2019-04-06T07:03:26.949Z,96852.19
2019-04-06T07:05:28.560Z,96845.20
2019-04-06T07:07:30.179Z,96846.93
2019-04-06T07:09:32.000Z,96852.94
2019-04-06T07:11:33.491Z,96855.92
2019-04-06T07:13:35.084Z,96851.05
2019-04-06T07:15:36.671Z,96844.84
2019-04-06T07:17:38.260Z,96850.44
2019-04-06T07:19:39.888Z,96849.77
2019-04-06T07:21:41.480Z,96846.58
2019-04-06T07:23:43.093Z,96849.05
2019-04-06T07:25:56.183Z,96847.94
2019-04-06T07:27:46.362Z,96852.41
2019-04-06T07:29:47.951Z,96851.47
2019-04-06T07:31:49.545Z,96845.32
2019-04-06T07:33:51.160Z,96848.24
2019-04-06T07:35:52.754Z,96847.38
2019-04-06T07:37:54.355Z,96846.23
2019-04-06T07:39:55.976Z,96848.88
2019-04-06T07:41:57.819Z,96845.05
2019-04-06T07:43:59.263Z,96842.48
2019-04-06T07:46:01.006Z,96834.39
2019-04-06T07:48:02.617Z,96844.48
2019-04-06T07:50:04.453Z,96843.09
2019-04-06T07:52:05.946Z,96836.09
2019-04-06T07:54:07.519Z,96838.70
2019-04-06T07:56:09.113Z,96844.95
2019-04-06T07:58:10.729Z,96836.77
2019-04-06T08:00:12.324Z,96832.07
2019-04-06T08:02:14.130Z,96831.00
2019-04-06T08:04:15.709Z,96830.89
2019-04-06T08:06:17.328Z,96833.06
2019-04-06T08:08:18.921Z,96826.19
2019-04-06T08:10:20.536Z,96828.84
2019-04-06T08:12:22.152Z,96824.02
2019-04-06T08:14:23.775Z,96821.41
2019-04-06T08:16:25.392Z,96825.84
2019-04-06T08:18:27.009Z,96825.84
2019-04-06T08:20:28.604Z,96819.93
2019-04-06T08:22:30.199Z,96821.13
2019-04-06T08:24:31.778Z,96816.81
2019-04-06T08:26:33.404Z,96816.69
2019-04-06T08:28:35.001Z,96821.73
2019-04-06T08:30:45.451Z,96812.31
2019-04-06T08:32:38.251Z,96807.19
2019-04-06T08:34:39.871Z,96812.14
2019-04-06T08:36:41.488Z,96812.70
2019-04-06T08:38:43.132Z,96814.42
2019-04-06T08:40:44.744Z,96813.83
2019-04-06T08:42:46.363Z,96811.98
2019-04-06T08:44:47.973Z,96817.05
2019-04-06T08:46:49.638Z,96805.48
2019-04-06T08:48:51.247Z,96819.58
2019-04-06T08:50:52.922Z,96823.00
2019-04-06T08:52:54.551Z,96820.45
2019-04-06T08:54:56.159Z,96816.01
2019-04-06T08:56:57.760Z,96816.42
2019-04-06T08:59:10.151Z,96820.66
2019-04-06T09:01:01.015Z,96805.33
2019-04-06T09:03:02.636Z,96821.30
2019-04-06T09:05:04.239Z,96783.81
2019-04-06T09:07:05.848Z,96823.64
2019-04-06T09:09:07.490Z,96821.48
2019-04-06T09:11:09.081Z,96818.86
2019-04-06T09:13:10.725Z,96823.91
2019-04-06T09:15:12.343Z,96820.98
2019-04-06T09:17:13.964Z,96819.77
2019-04-06T09:19:15.584Z,96821.16
2019-04-06T09:21:17.251Z,96814.40
2019-04-06T09:23:19.052Z,96815.23
2019-04-06T09:25:20.652Z,96815.80
2019-04-06T09:27:22.553Z,96812.11
2019-04-06T09:29:24.662Z,96816.52
2019-04-06T09:31:25.679Z,96814.93
2019-04-06T09:33:27.273Z,96815.91
2019-04-06T09:35:28.886Z,96817.78
2019-04-06T09:37:30.482Z,96821.63
2019-04-06T09:39:32.099Z,96823.86
2019-04-06T09:41:33.696Z,96820.58
2019-04-06T09:43:35.316Z,96812.56
2019-04-06T09:45:36.941Z,96819.86
2019-04-06T09:47:39.208Z,96809.77
2019-04-06T09:49:46.709Z,96810.15
2019-04-06T09:52:03.087Z,96810.69
2019-04-06T09:54:24.449Z,96816.91
2019-04-06T09:56:37.020Z,96814.81
2019-04-06T09:58:54.294Z,96811.73
2019-04-06T10:00:57.678Z,96814.01
2019-04-06T10:03:04.946Z,96806.38
2019-04-06T10:05:07.020Z,96810.87
2019-04-06T10:07:14.339Z,96803.75
2019-04-06T10:09:15.966Z,96809.85
2019-04-06T10:11:17.589Z,96804.78
2019-04-06T10:13:35.889Z,96809.99
2019-04-06T10:15:39.932Z,96801.06
2019-04-06T10:17:42.624Z,96811.69
2019-04-06T10:19:46.822Z,96797.64
2019-04-06T10:21:54.187Z,96790.05
2019-04-06T10:24:06.492Z,96798.45
2019-04-06T10:26:13.654Z,96793.77
2019-04-06T10:28:30.907Z,96798.03
2019-04-06T10:30:47.391Z,96794.63
2019-04-06T10:33:00.995Z,96793.83
2019-04-06T10:35:21.056Z,96789.63
2019-04-06T10:37:28.294Z,96794.03
2019-04-06T10:39:32.540Z,96790.52
2019-04-06T10:41:50.991Z,96790.55
2019-04-06T10:43:58.416Z,96795.31
2019-04-06T10:46:18.849Z,96794.45
2019-04-06T10:48:20.466Z,96793.20
2019-04-06T10:50:29.639Z,96794.09
2019-04-06T10:52:33.980Z,96785.22
2019-04-06T10:54:52.342Z,96785.63
2019-04-06T10:57:08.860Z,96783.13
2019-04-06T10:59:31.348Z,96780.62
2019-04-06T11:01:54.049Z,96776.52
2019-04-06T11:04:10.857Z,96778.21
2019-04-06T11:06:12.781Z,96776.55
2019-04-06T11:08:20.059Z,96775.30
2019-04-06T11:10:36.578Z,96772.82
2019-04-06T11:12:42.640Z,96774.34
2019-04-06T11:14:46.913Z,96770.72
2019-04-06T11:16:48.503Z,96765.91
2019-04-06T11:18:50.100Z,96745.58
2019-04-06T11:21:06.634Z,96759.16
2019-04-06T11:23:09.735Z,96764.38
2019-04-06T11:25:29.033Z,96759.20
2019-04-06T11:27:36.204Z,96758.37
2019-04-06T11:29:53.653Z,96749.83
2019-04-06T11:32:12.956Z,96753.14
2019-04-06T11:34:32.381Z,96753.67
2019-04-06T11:36:48.892Z,96748.50
2019-04-06T11:38:51.522Z,96754.70
2019-04-06T11:41:13.773Z,96764.93
2019-04-06T11:43:25.328Z,96748.36
2019-04-06T11:45:42.678Z,96718.34
2019-04-06T11:47:49.839Z,96744.08
2019-04-06T11:50:06.229Z,96744.25
2019-04-06T11:52:07.854Z,96735.91
2019-04-06T11:54:26.224Z,96727.59
2019-04-06T11:56:40.603Z,96745.64
2019-04-06T11:58:43.814Z,96738.82
2019-04-06T12:00:51.110Z,96731.66
2019-04-06T12:03:08.373Z,96724.56
2019-04-06T12:05:09.989Z,96735.80
2019-04-06T12:07:28.293Z,96723.16
2019-04-06T12:09:46.528Z,96724.20
2019-04-06T12:11:52.928Z,96725.13
2019-04-06T12:13:59.965Z,96726.57
2019-04-06T12:16:07.130Z,96721.42
2019-04-06T12:18:13.600Z,96721.75
2019-04-06T12:20:20.073Z,96709.72
2019-04-06T12:22:37.283Z,96713.41
2019-04-06T12:24:44.557Z,96708.19
2019-04-06T12:26:56.898Z,96714.82
2019-04-06T12:29:04.268Z,96705.96
2019-04-06T12:31:21.580Z,96703.62
2019-04-06T12:33:27.914Z,96698.02
2019-04-06T12:35:34.558Z,96704.24
2019-04-06T12:37:37.750Z,96697.81
2019-04-06T12:39:51.413Z,96695.26
2019-04-06T12:41:57.646Z,96692.19
2019-04-06T12:44:00.731Z,96692.25
2019-04-06T12:46:23.128Z,96696.71
2019-04-06T12:48:28.212Z,96697.31
2019-04-06T12:50:29.824Z,96696.95
2019-04-06T12:52:39.221Z,96692.46
2019-04-06T12:54:46.436Z,96695.05
2019-04-06T12:56:48.412Z,96693.68
2019-04-06T12:58:50.013Z,96703.86
2019-04-06T13:00:53.779Z,96695.80
2019-04-06T13:02:56.665Z,96702.47
2019-04-06T13:04:59.369Z,96695.86
2019-04-06T13:07:06.563Z,96692.91
2019-04-06T13:09:11.084Z,96693.47
2019-04-06T13:11:19.895Z,96657.16
2019-04-06T13:13:20.032Z,96692.99
2019-04-06T13:15:27.227Z,96697.56
2019-04-06T13:17:48.613Z,96694.50
2019-04-06T13:20:05.911Z,96700.05
2019-04-06T13:22:09.095Z,96693.29
2019-04-06T13:24:16.719Z,96697.79
2019-04-06T13:26:28.787Z,96696.98
2019-04-06T13:28:47.241Z,96697.94
2019-04-06T13:31:00.655Z,96707.24
2019-04-06T13:33:00.191Z,96710.63
2019-04-06T13:35:03.328Z,96704.19
2019-04-06T13:37:10.055Z,96704.86
2019-04-06T13:39:15.160Z,96704.62
2019-04-06T13:41:22.377Z,96697.09
2019-04-06T13:43:29.768Z,96704.02
2019-04-06T13:45:32.512Z,96704.08
2019-04-06T13:47:37.901Z,96696.05
2019-04-06T13:49:50.845Z,96698.25
2019-04-06T13:52:08.680Z,96694.48
2019-04-06T13:54:29.856Z,96691.41
2019-04-06T13:56:52.442Z,96701.04
2019-04-06T13:58:54.644Z,96701.70
2019-04-06T14:01:13.840Z,96692.09
2019-04-06T14:03:03.957Z,96698.17
2019-04-06T14:05:05.605Z,96699.11
2019-04-06T14:07:22.527Z,96694.84
2019-04-06T14:09:27.353Z,96697.84
2019-04-06T14:11:34.802Z,96700.64
2019-04-06T14:13:38.272Z,96707.05
2019-04-06T14:15:59.133Z,96712.22
2019-04-06T14:18:15.288Z,96707.22
2019-04-06T14:20:17.708Z,96710.47
2019-04-06T14:22:26.456Z,96718.03
2019-04-06T14:24:33.788Z,96721.16
2019-04-06T14:26:39.865Z,96712.28
2019-04-06T14:28:57.261Z,96719.58
2019-04-06T14:31:27.926Z,96717.02
2019-04-06T14:33:31.792Z,96717.14
2019-04-06T14:35:42.284Z,96727.27
2019-04-06T14:37:46.328Z,96719.29
2019-04-06T14:39:51.682Z,96719.89
2019-04-06T14:41:59.022Z,96718.53
2019-04-06T14:44:06.483Z,96718.95
2019-04-06T14:46:09.358Z,96716.05
2019-04-06T14:48:21.260Z,96733.84
2019-04-06T14:50:22.544Z,96729.54
2019-04-06T14:52:29.809Z,96726.30
2019-04-06T14:54:37.008Z,96725.20
2019-04-06T14:56:40.508Z,96718.17
2019-04-06T14:58:59.050Z,96717.05
2019-04-06T15:01:01.962Z,96714.97
2019-04-06T15:03:05.151Z,96724.29
2019-04-06T15:05:16.656Z,96732.44
2019-04-06T15:07:23.891Z,96737.35
2019-04-06T15:09:31.199Z,96746.69
2019-04-06T15:11:47.700Z,96736.31
2019-04-06T15:13:52.104Z,96744.22
2019-04-06T15:15:53.720Z,96753.98
2019-04-06T15:18:12.178Z,96763.09
2019-04-06T15:20:27.446Z,96761.12
2019-04-06T15:22:29.411Z,96767.95
2019-04-06T15:24:36.499Z,96766.67
2019-04-06T15:26:40.893Z,96767.09
2019-04-06T15:28:44.001Z,96765.91
2019-04-06T15:30:46.400Z,96765.84
2019-04-06T15:32:48.912Z,96763.79
2019-04-06T15:35:09.270Z,96768.46
2019-04-06T15:37:27.748Z,96767.13
2019-04-06T15:39:41.137Z,96773.48
2019-04-06T15:41:55.380Z,96773.52
2019-04-06T15:44:08.990Z,96773.52
2019-04-06T15:46:12.191Z,96776.05
2019-04-06T15:48:39.060Z,96779.89
2019-04-06T15:50:49.986Z,96775.30
2019-04-06T15:52:56.024Z,96768.20
2019-04-06T15:55:07.534Z,96770.16
2019-04-06T15:57:11.216Z,96771.88
2019-04-06T15:59:12.513Z,96769.52
2019-04-06T16:01:31.883Z,96773.52
2019-04-06T16:03:51.036Z,96776.33
2019-04-06T16:05:58.260Z,96783.80
2019-04-06T16:08:05.824Z,96783.10
2019-04-06T16:10:07.476Z,96778.20
2019-04-06T16:12:09.868Z,96783.45
2019-04-06T16:14:26.279Z,96787.40
2019-04-06T16:16:31.818Z,96786.25
2019-04-06T16:18:48.841Z,96788.16
2019-04-06T16:21:08.088Z,96789.93
2019-04-06T16:23:15.122Z,96793.87
2019-04-06T16:25:20.580Z,96794.73
2019-04-06T16:27:24.966Z,96793.32
2019-04-06T16:29:43.410Z,96794.91
2019-04-06T16:31:45.001Z,96786.75
2019-04-06T16:33:52.298Z,96801.25
2019-04-06T16:35:54.872Z,96799.66
2019-04-06T16:38:01.694Z,96793.38
2019-04-06T16:40:03.807Z,96799.06
2019-04-06T16:42:06.836Z,96800.87
2019-04-06T16:44:12.015Z,96806.53
2019-04-06T16:46:23.640Z,96805.80
2019-04-06T16:48:42.292Z,96806.84
2019-04-06T16:50:49.555Z,96806.11
2019-04-06T16:52:51.105Z,96808.35
2019-04-06T16:55:11.385Z,96809.79
2019-04-06T16:57:28.281Z,96807.80
2019-04-06T16:59:35.117Z,96808.35
2019-04-06T17:01:53.465Z,96811.84
2019-04-06T17:04:06.925Z,96817.08
2019-04-06T17:06:23.313Z,96815.44
2019-04-06T17:08:27.068Z,96816.30
2019-04-06T17:10:33.410Z,96817.52
2019-04-06T17:12:40.830Z,96817.42
2019-04-06T17:14:48.074Z,96816.53
2019-04-06T17:16:51.449Z,96822.95
2019-04-06T17:18:53.792Z,96820.05
2019-04-06T17:21:00.164Z,96818.05
2019-04-06T17:23:07.429Z,96816.84
2019-04-06T17:25:09.034Z,96819.91
2019-04-06T17:27:10.639Z,96815.72
2019-04-06T17:29:17.776Z,96812.35
2019-04-06T17:31:34.647Z,96819.77
2019-04-06T17:33:51.771Z,96821.33
2019-04-06T17:35:59.354Z,96822.45
2019-04-06T17:38:04.428Z,96822.30
2019-04-06T17:40:12.210Z,96819.30
2019-04-06T17:42:14.082Z,96826.12
2019-04-06T17:44:21.358Z,96821.10
2019-04-06T17:46:24.567Z,96828.84
2019-04-06T17:48:41.051Z,96829.34
2019-04-06T17:50:45.632Z,96832.83
2019-04-06T17:53:02.133Z,96834.89
2019-04-06T17:55:09.380Z,96839.03
2019-04-06T17:57:11.000Z,96835.23
2019-04-06T17:59:22.513Z,96834.42
2019-04-06T18:01:27.902Z,96832.41
2019-04-06T18:03:34.285Z,96831.99
2019-04-06T18:05:42.711Z,96839.23
2019-04-06T18:07:45.013Z,96837.86
2019-04-06T18:10:01.491Z,96845.84
2019-04-06T18:12:18.855Z,96839.53
2019-04-06T18:14:20.517Z,96838.28
2019-04-06T18:16:22.145Z,96853.75
2019-04-06T18:18:23.765Z,96848.64
2019-04-06T18:20:25.368Z,96857.27
2019-04-06T18:22:26.983Z,96855.63
2019-04-06T18:24:28.579Z,96855.23
2019-04-06T18:26:30.196Z,96856.41
2019-04-06T18:28:31.824Z,96858.55
2019-04-06T18:30:33.755Z,96863.92
2019-04-06T18:32:38.548Z,96857.88
2019-04-06T18:34:40.233Z,96861.14
2019-04-06T18:36:52.636Z,96862.78
2019-04-06T18:38:54.296Z,96859.87
2019-04-06T18:40:55.893Z,96864.58
2019-04-06T18:42:57.506Z,96865.12
2019-04-06T18:44:59.114Z,96865.23
2019-04-06T18:47:00.814Z,96866.04
2019-04-06T18:49:02.453Z,96869.33
2019-04-06T18:51:04.312Z,96874.34
2019-04-06T18:53:06.132Z,96875.08
2019-04-06T18:55:07.531Z,96876.17
2019-04-06T18:57:09.233Z,96872.83
2019-04-06T18:59:10.944Z,96876.23
2019-04-06T19:01:12.576Z,96873.69
2019-04-06T19:03:16.427Z,96862.42
2019-04-06T19:05:15.879Z,96873.72
2019-04-06T19:07:17.587Z,96871.11
2019-04-06T19:09:22.665Z,96869.66
2019-04-06T19:11:20.880Z,96870.81
2019-04-06T19:13:23.225Z,96870.59
2019-04-06T19:15:24.175Z,96869.77
2019-04-06T19:17:25.774Z,96869.00
2019-04-06T19:19:27.436Z,96867.08
2019-04-06T19:21:30.409Z,96869.68
2019-04-06T19:23:30.664Z,96867.67
2019-04-06T19:25:32.780Z,96862.06
2019-04-06T19:27:34.063Z,96863.38
2019-04-06T19:29:35.700Z,96867.55
2019-04-06T19:31:37.673Z,96869.68
2019-04-06T19:33:39.016Z,96871.45
2019-04-06T19:35:40.612Z,96868.92
2019-04-06T19:37:42.215Z,96866.36
2019-04-06T19:39:43.796Z,96863.70
2019-04-06T19:41:45.422Z,96861.05
2019-04-06T19:43:47.043Z,96861.30
2019-04-06T19:45:48.711Z,96860.75
2019-04-06T19:47:50.331Z,96864.77
2019-04-06T19:49:51.949Z,96856.68
2019-04-06T19:51:53.664Z,96857.83
2019-04-06T19:53:55.902Z,96861.03
2019-04-06T19:55:57.436Z,96859.76
2019-04-06T19:57:59.694Z,96857.23
2019-04-06T20:00:00.423Z,96856.91
2019-04-06T20:02:02.102Z,96859.97
2019-04-06T20:04:03.698Z,96858.87
2019-04-06T20:06:05.326Z,96858.61
2019-04-06T20:08:07.148Z,96859.91
2019-04-06T20:10:08.553Z,96859.08
2019-04-06T20:12:10.303Z,96853.52
2019-04-06T20:14:11.977Z,96855.66
2019-04-06T20:16:13.559Z,96856.13
2019-04-06T20:18:15.157Z,96851.53
2019-04-06T20:20:16.734Z,96852.08
2019-04-06T20:22:18.374Z,96845.82
2019-04-06T20:24:19.969Z,96845.87
2019-04-06T20:26:22.265Z,96841.80
2019-04-06T20:28:23.359Z,96844.09
2019-04-06T20:30:25.565Z,96844.64
2019-04-06T20:32:26.736Z,96840.48
2019-04-06T20:34:28.432Z,96847.05
2019-04-06T20:36:30.414Z,96848.88
2019-04-06T20:38:32.250Z,96846.39
2019-04-06T20:40:33.495Z,96850.77
2019-04-06T20:42:35.032Z,96844.09
2019-04-06T20:44:37.075Z,96845.98
2019-04-06T20:46:38.667Z,96843.92
2019-04-06T20:48:40.090Z,96836.56
2019-04-06T20:50:41.650Z,96839.28
2019-04-06T20:52:43.240Z,96839.45
2019-04-06T20:54:45.161Z,96840.17
2019-04-06T20:56:53.995Z,96842.56
2019-04-06T20:58:48.251Z,96843.39
2019-04-06T21:00:50.507Z,96837.09
2019-04-06T21:02:52.014Z,96839.84
2019-04-06T21:04:53.162Z,96837.09
2019-04-06T21:06:54.949Z,96832.69
2019-04-06T21:08:56.588Z,96836.27
2019-04-06T21:10:58.217Z,96833.45
2019-04-06T21:13:00.495Z,96837.69
2019-04-06T21:15:02.352Z,96834.33
2019-04-06T21:17:04.207Z,96831.61
2019-04-06T21:19:05.489Z,96835.61
2019-04-06T21:21:07.111Z,96830.69
2019-04-06T21:23:08.719Z,96826.13
2019-04-06T21:25:10.344Z,96827.89
2019-04-06T21:27:12.442Z,96825.45
2019-04-06T21:29:13.739Z,96827.86
2019-04-06T21:31:15.332Z,96827.27
2019-04-06T21:33:17.074Z,96819.73
2019-04-06T21:35:18.880Z,96819.99
2019-04-06T21:37:20.282Z,96820.80
2019-04-06T21:39:22.369Z,96822.71
2019-04-06T21:41:24.588Z,96822.98
2019-04-06T21:43:25.287Z,96818.66
2019-04-06T21:45:26.885Z,96817.59
2019-04-06T21:47:28.523Z,96824.34
2019-04-06T21:49:30.113Z,96815.83
2019-04-06T21:51:32.404Z,96816.48
2019-04-06T21:53:33.445Z,96816.63
2019-04-06T21:55:35.623Z,96813.75
2019-04-06T21:57:36.756Z,96816.34
2019-04-06T21:59:38.385Z,96816.22
2019-04-06T22:01:40.102Z,96813.75
2019-04-06T22:03:41.825Z,96819.09
2019-04-06T22:05:43.409Z,96815.47
2019-04-06T22:07:49.582Z,96812.04
2019-04-06T22:09:46.772Z,96810.19
2019-04-06T22:11:48.337Z,96813.63
2019-04-06T22:13:49.932Z,96811.59
2019-04-06T22:15:51.783Z,96813.05
2019-04-06T22:17:53.312Z,96815.85
2019-04-06T22:19:55.100Z,96816.20
2019-04-06T22:21:56.589Z,96815.50
2019-04-06T22:23:58.208Z,96814.31
2019-04-06T22:26:00.408Z,96811.95
2019-04-06T22:28:01.875Z,96808.20
2019-04-06T22:30:03.126Z,96805.09
2019-04-06T22:32:04.953Z,96801.98
2019-04-06T22:34:06.868Z,96803.66
2019-04-06T22:36:08.115Z,96803.64
2019-04-06T22:38:09.740Z,96800.70
2019-04-06T22:40:11.385Z,96801.08
2019-04-06T22:42:13.024Z,96801.22
2019-04-06T22:44:14.603Z,96757.03
2019-04-06T22:46:16.231Z,96794.34
2019-04-06T22:48:17.841Z,96807.39
2019-04-06T22:50:19.977Z,96803.72
2019-04-06T22:52:21.174Z,96794.04
2019-04-06T22:54:23.010Z,96795.56
2019-04-06T22:56:24.432Z,96790.23
2019-04-06T22:58:26.034Z,96799.95
2019-04-06T23:00:28.193Z,96794.06
2019-04-06T23:02:29.771Z,96797.80
2019-04-06T23:04:45.756Z,96800.66
2019-04-06T23:06:40.440Z,96794.29
2019-04-06T23:08:42.280Z,96796.01
2019-04-06T23:10:43.765Z,96786.70
2019-04-06T23:12:45.370Z,96792.17
2019-04-06T23:14:46.978Z,96788.64
2019-04-06T23:16:49.189Z,96790.31
2019-04-06T23:18:50.288Z,96792.59
2019-04-06T23:20:51.875Z,96791.12
2019-04-06T23:22:53.817Z,96791.58
2019-04-06T23:24:55.194Z,96790.83
2019-04-06T23:26:56.835Z,96789.11
2019-04-06T23:28:58.463Z,96787.80
2019-04-06T23:31:00.276Z,96790.28
2019-04-06T23:33:01.794Z,96789.42
2019-04-06T23:35:03.627Z,96790.81
2019-04-06T23:37:05.085Z,96791.70
2019-04-06T23:39:06.848Z,96788.11
2019-04-06T23:41:08.412Z,96792.36
2019-04-06T23:43:10.068Z,96789.47
2019-04-06T23:45:11.660Z,96790.02
2019-04-06T23:47:13.737Z,96789.96
2019-04-06T23:49:14.952Z,96792.39
2019-04-06T23:51:16.555Z,96789.36
2019-04-06T23:53:18.161Z,96787.08
2019-04-06T23:55:20.018Z,96787.75
2019-04-06T23:57:21.404Z,96786.75
2019-04-06T23:59:23.329Z,96787.37
